sensor_id;sensor_type;location;lat;lon;timestamp;temperature;humidity
9448;DHT22;4762;48.128;11.376;2023-09-30T00:00:00;16.00;75.70
9448;DHT22;4762;48.128;11.376;2023-09-30T00:02:05;16.00;76.30
9448;DHT22;4762;48.128;11.376;2023-09-30T00:04:08;15.90;77.00
9448;DHT22;4762;48.128;11.376;2023-09-30T00:06:11;16.00;77.40
9448;DHT22;4762;48.128;11.376;2023-09-30T00:08:19;16.00;76.40
9448;DHT22;4762;48.128;11.376;2023-09-30T00:10:38;16.00;76.70
9448;DHT22;4762;48.128;11.376;2023-09-30T00:12:43;15.90;76.70
9448;DHT22;4762;48.128;11.376;2023-09-30T00:14:48;15.90;77.00
9448;DHT22;4762;48.128;11.376;2023-09-30T00:16:54;16.00;76.90
9448;DHT22;4762;48.128;11.376;2023-09-30T00:18:58;15.90;76.90
9448;DHT22;4762;48.128;11.376;2023-09-30T00:21:10;15.90;77.40
9448;DHT22;4762;48.128;11.376;2023-09-30T00:23:21;15.90;77.90
9448;DHT22;4762;48.128;11.376;2023-09-30T00:25:27;15.90;77.90
9448;DHT22;4762;48.128;11.376;2023-09-30T00:27:34;15.90;78.90
9448;DHT22;4762;48.128;11.376;2023-09-30T00:29:45;15.80;78.40
9448;DHT22;4762;48.128;11.376;2023-09-30T00:31:47;15.90;78.50
9448;DHT22;4762;48.128;11.376;2023-09-30T00:33:53;15.90;78.00
9448;DHT22;4762;48.128;11.376;2023-09-30T00:36:16;15.90;78.50
9448;DHT22;4762;48.128;11.376;2023-09-30T00:40:58;15.90;78.80
9448;DHT22;4762;48.128;11.376;2023-09-30T00:43:04;15.80;79.40
9448;DHT22;4762;48.128;11.376;2023-09-30T00:45:17;15.80;79.70
9448;DHT22;4762;48.128;11.376;2023-09-30T00:55:34;15.70;81.10
9448;DHT22;4762;48.128;11.376;2023-09-30T00:57:41;15.70;81.30
9448;DHT22;4762;48.128;11.376;2023-09-30T00:59:48;15.70;81.80
9448;DHT22;4762;48.128;11.376;2023-09-30T01:01:59;15.70;81.50
9448;DHT22;4762;48.128;11.376;2023-09-30T01:04:05;15.70;81.90
9448;DHT22;4762;48.128;11.376;2023-09-30T01:06:13;15.70;82.10
9448;DHT22;4762;48.128;11.376;2023-09-30T01:08:24;15.70;81.90
9448;DHT22;4762;48.128;11.376;2023-09-30T01:10:31;15.70;81.90
9448;DHT22;4762;48.128;11.376;2023-09-30T01:12:34;15.80;81.60
9448;DHT22;4762;48.128;11.376;2023-09-30T01:14:38;15.90;81.70
9448;DHT22;4762;48.128;11.376;2023-09-30T01:16:45;15.90;81.10
9448;DHT22;4762;48.128;11.376;2023-09-30T01:21:14;15.90;80.70
9448;DHT22;4762;48.128;11.376;2023-09-30T01:26:02;15.90;81.00
9448;DHT22;4762;48.128;11.376;2023-09-30T01:28:09;15.90;81.20
9448;DHT22;4762;48.128;11.376;2023-09-30T01:30:13;15.80;81.00
9448;DHT22;4762;48.128;11.376;2023-09-30T01:32:16;15.80;81.20
9448;DHT22;4762;48.128;11.376;2023-09-30T01:34:19;15.70;81.70
9448;DHT22;4762;48.128;11.376;2023-09-30T01:36:22;15.60;82.10
9448;DHT22;4762;48.128;11.376;2023-09-30T01:38:25;15.60;82.30
9448;DHT22;4762;48.128;11.376;2023-09-30T01:40:28;15.60;82.80
9448;DHT22;4762;48.128;11.376;2023-09-30T01:42:35;15.60;82.70
9448;DHT22;4762;48.128;11.376;2023-09-30T01:44:50;15.60;82.30
9448;DHT22;4762;48.128;11.376;2023-09-30T01:46:54;15.60;82.80
9448;DHT22;4762;48.128;11.376;2023-09-30T01:48:59;15.60;82.70
9448;DHT22;4762;48.128;11.376;2023-09-30T01:51:03;15.50;82.40
9448;DHT22;4762;48.128;11.376;2023-09-30T01:53:08;15.50;83.20
9448;DHT22;4762;48.128;11.376;2023-09-30T01:55:11;15.50;83.10
9448;DHT22;4762;48.128;11.376;2023-09-30T01:57:18;15.50;83.50
9448;DHT22;4762;48.128;11.376;2023-09-30T01:59:25;15.40;83.20
9448;DHT22;4762;48.128;11.376;2023-09-30T02:01:34;15.40;83.20
9448;DHT22;4762;48.128;11.376;2023-09-30T02:03:37;15.40;83.60
9448;DHT22;4762;48.128;11.376;2023-09-30T02:05:43;15.40;83.60
9448;DHT22;4762;48.128;11.376;2023-09-30T02:07:47;15.40;84.10
9448;DHT22;4762;48.128;11.376;2023-09-30T02:09:54;15.40;83.90
9448;DHT22;4762;48.128;11.376;2023-09-30T02:11:58;15.50;83.90
9448;DHT22;4762;48.128;11.376;2023-09-30T02:14:04;15.60;83.60
9448;DHT22;4762;48.128;11.376;2023-09-30T02:16:13;15.60;83.20
9448;DHT22;4762;48.128;11.376;2023-09-30T02:20:40;15.70;82.70
9448;DHT22;4762;48.128;11.376;2023-09-30T02:22:46;15.70;82.60
9448;DHT22;4762;48.128;11.376;2023-09-30T02:24:50;15.80;82.60
9448;DHT22;4762;48.128;11.376;2023-09-30T02:26:53;15.80;82.10
9448;DHT22;4762;48.128;11.376;2023-09-30T02:28:57;15.80;82.20
9448;DHT22;4762;48.128;11.376;2023-09-30T02:31:02;15.80;82.10
9448;DHT22;4762;48.128;11.376;2023-09-30T02:33:07;15.90;81.70
9448;DHT22;4762;48.128;11.376;2023-09-30T02:35:11;15.90;81.60
9448;DHT22;4762;48.128;11.376;2023-09-30T02:37:14;15.80;81.60
9448;DHT22;4762;48.128;11.376;2023-09-30T02:39:17;15.80;81.70
9448;DHT22;4762;48.128;11.376;2023-09-30T02:41:19;15.80;81.60
9448;DHT22;4762;48.128;11.376;2023-09-30T02:43:23;15.80;81.70
9448;DHT22;4762;48.128;11.376;2023-09-30T02:45:26;15.80;81.80
9448;DHT22;4762;48.128;11.376;2023-09-30T02:47:29;15.80;81.60
9448;DHT22;4762;48.128;11.376;2023-09-30T02:49:34;15.80;81.50
9448;DHT22;4762;48.128;11.376;2023-09-30T02:51:39;15.80;81.50
9448;DHT22;4762;48.128;11.376;2023-09-30T02:53:45;15.80;81.60
9448;DHT22;4762;48.128;11.376;2023-09-30T02:55:50;15.80;81.50
9448;DHT22;4762;48.128;11.376;2023-09-30T02:57:53;15.80;81.10
9448;DHT22;4762;48.128;11.376;2023-09-30T03:00:00;15.90;81.00
9448;DHT22;4762;48.128;11.376;2023-09-30T03:02:08;15.90;80.80
9448;DHT22;4762;48.128;11.376;2023-09-30T03:04:13;15.90;81.10
9448;DHT22;4762;48.128;11.376;2023-09-30T03:06:16;15.80;81.10
9448;DHT22;4762;48.128;11.376;2023-09-30T03:08:22;15.80;81.20
9448;DHT22;4762;48.128;11.376;2023-09-30T03:10:35;15.80;81.20
9448;DHT22;4762;48.128;11.376;2023-09-30T03:12:39;15.80;81.30
9448;DHT22;4762;48.128;11.376;2023-09-30T03:14:42;15.80;81.40
9448;DHT22;4762;48.128;11.376;2023-09-30T03:16:45;15.80;81.90
9448;DHT22;4762;48.128;11.376;2023-09-30T03:18:59;15.80;81.60
9448;DHT22;4762;48.128;11.376;2023-09-30T03:21:14;15.70;82.00
9448;DHT22;4762;48.128;11.376;2023-09-30T03:23:07;15.70;82.40
9448;DHT22;4762;48.128;11.376;2023-09-30T03:25:10;15.60;82.20
9448;DHT22;4762;48.128;11.376;2023-09-30T03:27:14;15.60;82.30
9448;DHT22;4762;48.128;11.376;2023-09-30T03:29:17;15.60;82.40
9448;DHT22;4762;48.128;11.376;2023-09-30T03:31:23;15.60;82.80
9448;DHT22;4762;48.128;11.376;2023-09-30T03:33:26;15.60;82.80
9448;DHT22;4762;48.128;11.376;2023-09-30T03:35:31;15.60;82.60
9448;DHT22;4762;48.128;11.376;2023-09-30T03:37:36;15.60;82.80
9448;DHT22;4762;48.128;11.376;2023-09-30T03:39:43;15.70;82.70
9448;DHT22;4762;48.128;11.376;2023-09-30T03:41:49;15.70;82.20
9448;DHT22;4762;48.128;11.376;2023-09-30T03:44:03;15.80;81.60
9448;DHT22;4762;48.128;11.376;2023-09-30T03:46:08;15.80;81.90
9448;DHT22;4762;48.128;11.376;2023-09-30T03:48:11;15.80;81.60
9448;DHT22;4762;48.128;11.376;2023-09-30T03:50:18;15.80;82.00
9448;DHT22;4762;48.128;11.376;2023-09-30T03:52:23;15.80;82.00
9448;DHT22;4762;48.128;11.376;2023-09-30T03:54:27;15.80;82.20
9448;DHT22;4762;48.128;11.376;2023-09-30T03:56:30;15.80;82.00
9448;DHT22;4762;48.128;11.376;2023-09-30T03:58:33;15.80;81.40
9448;DHT22;4762;48.128;11.376;2023-09-30T04:00:39;15.80;81.30
9448;DHT22;4762;48.128;11.376;2023-09-30T04:02:47;15.90;81.30
9448;DHT22;4762;48.128;11.376;2023-09-30T04:04:51;15.90;80.90
9448;DHT22;4762;48.128;11.376;2023-09-30T04:06:57;15.90;81.00
9448;DHT22;4762;48.128;11.376;2023-09-30T04:08:59;15.90;80.80
9448;DHT22;4762;48.128;11.376;2023-09-30T04:11:02;15.90;80.70
9448;DHT22;4762;48.128;11.376;2023-09-30T04:13:07;15.90;80.90
9448;DHT22;4762;48.128;11.376;2023-09-30T04:15:18;15.90;80.80
9448;DHT22;4762;48.128;11.376;2023-09-30T04:17:22;15.80;80.90
9448;DHT22;4762;48.128;11.376;2023-09-30T04:19:24;15.80;81.10
9448;DHT22;4762;48.128;11.376;2023-09-30T04:21:33;15.90;81.10
9448;DHT22;4762;48.128;11.376;2023-09-30T04:23:37;15.80;80.80
9448;DHT22;4762;48.128;11.376;2023-09-30T04:25:44;15.80;81.10
9448;DHT22;4762;48.128;11.376;2023-09-30T04:27:49;15.80;81.30
9448;DHT22;4762;48.128;11.376;2023-09-30T04:29:53;15.80;81.10
9448;DHT22;4762;48.128;11.376;2023-09-30T04:31:57;15.80;81.10
9448;DHT22;4762;48.128;11.376;2023-09-30T04:34:00;15.80;81.00
9448;DHT22;4762;48.128;11.376;2023-09-30T04:36:03;15.80;81.30
9448;DHT22;4762;48.128;11.376;2023-09-30T04:38:09;15.70;81.40
9448;DHT22;4762;48.128;11.376;2023-09-30T04:40:15;15.70;81.60
9448;DHT22;4762;48.128;11.376;2023-09-30T04:42:22;15.60;81.60
9448;DHT22;4762;48.128;11.376;2023-09-30T04:44:28;15.60;81.70
9448;DHT22;4762;48.128;11.376;2023-09-30T04:46:36;15.50;81.70
9448;DHT22;4762;48.128;11.376;2023-09-30T04:48:44;15.50;81.90
9448;DHT22;4762;48.128;11.376;2023-09-30T04:50:49;15.40;82.60
9448;DHT22;4762;48.128;11.376;2023-09-30T04:52:53;15.40;82.90
9448;DHT22;4762;48.128;11.376;2023-09-30T04:54:56;15.30;82.90
9448;DHT22;4762;48.128;11.376;2023-09-30T04:57:00;15.20;82.30
9448;DHT22;4762;48.128;11.376;2023-09-30T04:59:07;15.20;83.20
9448;DHT22;4762;48.128;11.376;2023-09-30T05:01:12;15.10;84.10
9448;DHT22;4762;48.128;11.376;2023-09-30T05:03:18;15.00;84.30
9448;DHT22;4762;48.128;11.376;2023-09-30T05:05:30;14.90;85.30
9448;DHT22;4762;48.128;11.376;2023-09-30T05:07:45;14.90;85.80
9448;DHT22;4762;48.128;11.376;2023-09-30T05:09:51;14.90;86.80
9448;DHT22;4762;48.128;11.376;2023-09-30T05:11:55;15.00;87.50
9448;DHT22;4762;48.128;11.376;2023-09-30T05:14:08;15.00;87.00
9448;DHT22;4762;48.128;11.376;2023-09-30T05:16:11;15.10;86.70
9448;DHT22;4762;48.128;11.376;2023-09-30T05:18:20;15.20;85.90
9448;DHT22;4762;48.128;11.376;2023-09-30T05:20:28;15.20;86.00
9448;DHT22;4762;48.128;11.376;2023-09-30T05:22:31;15.20;85.50
9448;DHT22;4762;48.128;11.376;2023-09-30T05:24:36;15.20;85.10
9448;DHT22;4762;48.128;11.376;2023-09-30T05:26:43;15.10;85.30
9448;DHT22;4762;48.128;11.376;2023-09-30T05:28:46;15.10;85.90
9448;DHT22;4762;48.128;11.376;2023-09-30T05:30:49;15.00;86.50
9448;DHT22;4762;48.128;11.376;2023-09-30T05:33:03;15.00;86.70
9448;DHT22;4762;48.128;11.376;2023-09-30T05:35:07;14.90;87.40
9448;DHT22;4762;48.128;11.376;2023-09-30T05:37:26;14.90;86.60
9448;DHT22;4762;48.128;11.376;2023-09-30T05:39:29;14.90;87.00
9448;DHT22;4762;48.128;11.376;2023-09-30T05:41:33;14.80;88.20
9448;DHT22;4762;48.128;11.376;2023-09-30T05:43:35;14.90;88.60
9448;DHT22;4762;48.128;11.376;2023-09-30T05:45:39;14.90;89.30
9448;DHT22;4762;48.128;11.376;2023-09-30T05:47:43;14.90;89.70
9448;DHT22;4762;48.128;11.376;2023-09-30T05:50:00;15.00;89.00
9448;DHT22;4762;48.128;11.376;2023-09-30T05:52:04;15.10;88.20
9448;DHT22;4762;48.128;11.376;2023-09-30T05:54:07;15.20;87.90
9448;DHT22;4762;48.128;11.376;2023-09-30T05:56:13;15.20;87.20
9448;DHT22;4762;48.128;11.376;2023-09-30T05:58:15;15.30;87.00
9448;DHT22;4762;48.128;11.376;2023-09-30T06:00:18;15.30;86.00
9448;DHT22;4762;48.128;11.376;2023-09-30T06:02:25;15.40;85.40
9448;DHT22;4762;48.128;11.376;2023-09-30T06:04:37;15.50;84.60
9448;DHT22;4762;48.128;11.376;2023-09-30T06:06:40;15.50;84.10
9448;DHT22;4762;48.128;11.376;2023-09-30T06:08:43;15.40;84.40
9448;DHT22;4762;48.128;11.376;2023-09-30T06:10:46;15.50;84.80
9448;DHT22;4762;48.128;11.376;2023-09-30T06:12:50;15.50;84.90
9448;DHT22;4762;48.128;11.376;2023-09-30T06:14:53;15.50;84.40
9448;DHT22;4762;48.128;11.376;2023-09-30T06:16:57;15.60;85.00
9448;DHT22;4762;48.128;11.376;2023-09-30T06:19:03;15.50;83.60
9448;DHT22;4762;48.128;11.376;2023-09-30T06:21:06;15.50;84.10
9448;DHT22;4762;48.128;11.376;2023-09-30T06:23:09;15.70;84.00
9448;DHT22;4762;48.128;11.376;2023-09-30T06:25:15;15.70;82.20
9448;DHT22;4762;48.128;11.376;2023-09-30T06:27:22;15.70;82.90
9448;DHT22;4762;48.128;11.376;2023-09-30T06:29:24;15.70;83.10
9448;DHT22;4762;48.128;11.376;2023-09-30T06:31:26;15.90;82.70
9448;DHT22;4762;48.128;11.376;2023-09-30T06:33:29;16.00;81.70
9448;DHT22;4762;48.128;11.376;2023-09-30T06:35:31;15.90;80.90
9448;DHT22;4762;48.128;11.376;2023-09-30T06:37:34;15.90;81.20
9448;DHT22;4762;48.128;11.376;2023-09-30T06:39:36;16.10;81.80
9448;DHT22;4762;48.128;11.376;2023-09-30T06:41:39;16.20;81.20
9448;DHT22;4762;48.128;11.376;2023-09-30T06:43:43;16.20;80.50
9448;DHT22;4762;48.128;11.376;2023-09-30T06:45:48;16.60;79.40
9448;DHT22;4762;48.128;11.376;2023-09-30T06:47:50;17.10;77.00
9448;DHT22;4762;48.128;11.376;2023-09-30T06:49:54;17.20;74.60
9448;DHT22;4762;48.128;11.376;2023-09-30T06:51:58;17.10;76.90
9448;DHT22;4762;48.128;11.376;2023-09-30T06:54:04;16.90;76.30
9448;DHT22;4762;48.128;11.376;2023-09-30T06:56:05;17.00;76.10
9448;DHT22;4762;48.128;11.376;2023-09-30T06:58:13;17.10;77.30
9448;DHT22;4762;48.128;11.376;2023-09-30T07:00:16;16.90;76.40
9448;DHT22;4762;48.128;11.376;2023-09-30T07:02:19;16.80;76.50
9448;DHT22;4762;48.128;11.376;2023-09-30T07:04:22;16.80;76.30
9448;DHT22;4762;48.128;11.376;2023-09-30T07:06:26;16.70;76.80
9448;DHT22;4762;48.128;11.376;2023-09-30T07:08:29;16.80;77.10
9448;DHT22;4762;48.128;11.376;2023-09-30T07:10:31;17.00;76.00
9448;DHT22;4762;48.128;11.376;2023-09-30T07:12:35;17.10;76.00
9448;DHT22;4762;48.128;11.376;2023-09-30T07:14:37;17.20;74.20
9448;DHT22;4762;48.128;11.376;2023-09-30T07:16:39;17.30;75.00
9448;DHT22;4762;48.128;11.376;2023-09-30T07:18:41;17.60;75.60
9448;DHT22;4762;48.128;11.376;2023-09-30T07:20:44;17.80;72.40
9448;DHT22;4762;48.128;11.376;2023-09-30T07:22:47;18.10;72.60
9448;DHT22;4762;48.128;11.376;2023-09-30T07:24:49;18.10;71.20
9448;DHT22;4762;48.128;11.376;2023-09-30T07:26:52;18.10;72.20
9448;DHT22;4762;48.128;11.376;2023-09-30T07:28:57;18.90;72.10
9448;DHT22;4762;48.128;11.376;2023-09-30T07:31:02;19.10;68.70
9448;DHT22;4762;48.128;11.376;2023-09-30T07:33:05;18.60;68.50
9448;DHT22;4762;48.128;11.376;2023-09-30T07:35:08;18.50;70.20
9448;DHT22;4762;48.128;11.376;2023-09-30T07:37:11;18.60;70.40
9448;DHT22;4762;48.128;11.376;2023-09-30T07:39:14;18.40;69.30
9448;DHT22;4762;48.128;11.376;2023-09-30T07:41:17;18.20;70.40
9448;DHT22;4762;48.128;11.376;2023-09-30T07:43:22;18.80;70.20
9448;DHT22;4762;48.128;11.376;2023-09-30T07:45:26;19.20;68.40
9448;DHT22;4762;48.128;11.376;2023-09-30T07:47:29;19.30;67.70
9448;DHT22;4762;48.128;11.376;2023-09-30T07:49:37;19.50;67.40
9448;DHT22;4762;48.128;11.376;2023-09-30T07:51:45;19.30;67.70
9448;DHT22;4762;48.128;11.376;2023-09-30T07:53:50;19.20;66.00
9448;DHT22;4762;48.128;11.376;2023-09-30T07:55:55;19.30;65.80
9448;DHT22;4762;48.128;11.376;2023-09-30T07:57:59;19.00;67.20
9448;DHT22;4762;48.128;11.376;2023-09-30T08:00:07;18.90;66.70
9448;DHT22;4762;48.128;11.376;2023-09-30T08:02:13;18.30;69.60
9448;DHT22;4762;48.128;11.376;2023-09-30T08:04:15;18.60;69.00
9448;DHT22;4762;48.128;11.376;2023-09-30T08:06:18;18.70;68.70
9448;DHT22;4762;48.128;11.376;2023-09-30T08:08:20;19.10;67.50
9448;DHT22;4762;48.128;11.376;2023-09-30T08:10:24;19.10;66.20
9448;DHT22;4762;48.128;11.376;2023-09-30T08:12:28;18.80;67.50
9448;DHT22;4762;48.128;11.376;2023-09-30T08:14:30;18.70;68.20
9448;DHT22;4762;48.128;11.376;2023-09-30T08:16:35;18.50;66.90
9448;DHT22;4762;48.128;11.376;2023-09-30T08:18:37;18.40;68.50
9448;DHT22;4762;48.128;11.376;2023-09-30T08:20:40;18.40;69.40
9448;DHT22;4762;48.128;11.376;2023-09-30T08:22:43;18.70;67.90
9448;DHT22;4762;48.128;11.376;2023-09-30T08:24:47;18.90;68.20
9448;DHT22;4762;48.128;11.376;2023-09-30T08:26:49;19.80;67.50
9448;DHT22;4762;48.128;11.376;2023-09-30T08:28:53;19.80;66.10
9448;DHT22;4762;48.128;11.376;2023-09-30T08:31:01;19.90;63.50
9448;DHT22;4762;48.128;11.376;2023-09-30T08:33:01;20.40;63.10
9448;DHT22;4762;48.128;11.376;2023-09-30T08:35:07;20.70;62.40
9448;DHT22;4762;48.128;11.376;2023-09-30T08:37:09;20.80;62.10
9448;DHT22;4762;48.128;11.376;2023-09-30T08:39:12;20.40;61.50
9448;DHT22;4762;48.128;11.376;2023-09-30T08:43:28;19.80;64.10
9448;DHT22;4762;48.128;11.376;2023-09-30T08:45:41;19.30;65.20
9448;DHT22;4762;48.128;11.376;2023-09-30T08:47:50;19.00;65.60
9448;DHT22;4762;48.128;11.376;2023-09-30T08:49:54;18.80;66.30
9448;DHT22;4762;48.128;11.376;2023-09-30T08:51:56;18.70;67.50
9448;DHT22;4762;48.128;11.376;2023-09-30T08:53:59;19.20;68.30
9448;DHT22;4762;48.128;11.376;2023-09-30T08:56:02;20.00;65.90
9448;DHT22;4762;48.128;11.376;2023-09-30T08:58:05;20.30;63.30
9448;DHT22;4762;48.128;11.376;2023-09-30T09:00:18;20.70;60.80
9448;DHT22;4762;48.128;11.376;2023-09-30T09:02:26;20.70;61.30
9448;DHT22;4762;48.128;11.376;2023-09-30T09:04:32;21.00;60.70
9448;DHT22;4762;48.128;11.376;2023-09-30T09:09:15;21.80;61.20
9448;DHT22;4762;48.128;11.376;2023-09-30T09:11:23;20.70;59.50
9448;DHT22;4762;48.128;11.376;2023-09-30T09:13:27;21.40;58.50
9448;DHT22;4762;48.128;11.376;2023-09-30T09:15:34;21.60;58.90
9448;DHT22;4762;48.128;11.376;2023-09-30T09:20:18;20.10;58.80
9448;DHT22;4762;48.128;11.376;2023-09-30T09:22:22;20.30;58.50
9448;DHT22;4762;48.128;11.376;2023-09-30T09:24:30;20.10;60.70
9448;DHT22;4762;48.128;11.376;2023-09-30T09:26:32;20.30;60.70
9448;DHT22;4762;48.128;11.376;2023-09-30T09:28:37;20.20;61.70
9448;DHT22;4762;48.128;11.376;2023-09-30T09:30:40;20.00;61.10
9448;DHT22;4762;48.128;11.376;2023-09-30T09:32:54;20.10;61.00
9448;DHT22;4762;48.128;11.376;2023-09-30T09:35:01;20.00;61.10
9448;DHT22;4762;48.128;11.376;2023-09-30T09:37:16;20.00;60.70
9448;DHT22;4762;48.128;11.376;2023-09-30T09:39:36;20.20;62.30
9448;DHT22;4762;48.128;11.376;2023-09-30T09:41:49;20.00;62.60
9448;DHT22;4762;48.128;11.376;2023-09-30T09:43:50;21.30;59.20
9448;DHT22;4762;48.128;11.376;2023-09-30T09:45:54;22.20;57.50
9448;DHT22;4762;48.128;11.376;2023-09-30T09:47:57;21.90;55.40
9448;DHT22;4762;48.128;11.376;2023-09-30T09:50:00;21.60;57.30
9448;DHT22;4762;48.128;11.376;2023-09-30T09:52:04;21.10;58.40
9448;DHT22;4762;48.128;11.376;2023-09-30T09:54:08;22.10;56.30
9448;DHT22;4762;48.128;11.376;2023-09-30T09:56:10;21.90;55.00
9448;DHT22;4762;48.128;11.376;2023-09-30T09:58:13;21.60;56.90
9448;DHT22;4762;48.128;11.376;2023-09-30T10:00:26;20.80;55.30
9448;DHT22;4762;48.128;11.376;2023-09-30T10:02:28;21.60;57.40
9448;DHT22;4762;48.128;11.376;2023-09-30T10:04:32;20.90;56.90
9448;DHT22;4762;48.128;11.376;2023-09-30T10:06:35;21.10;57.00
9448;DHT22;4762;48.128;11.376;2023-09-30T10:08:41;20.80;57.30
9448;DHT22;4762;48.128;11.376;2023-09-30T10:10:44;21.40;57.30
9448;DHT22;4762;48.128;11.376;2023-09-30T10:12:48;21.90;56.10
9448;DHT22;4762;48.128;11.376;2023-09-30T10:14:51;22.80;54.00
9448;DHT22;4762;48.128;11.376;2023-09-30T10:16:54;23.40;52.60
9448;DHT22;4762;48.128;11.376;2023-09-30T10:19:07;23.50;51.20
9448;DHT22;4762;48.128;11.376;2023-09-30T10:21:14;23.00;51.70
9448;DHT22;4762;48.128;11.376;2023-09-30T10:23:21;22.50;53.30
9448;DHT22;4762;48.128;11.376;2023-09-30T10:25:33;23.00;50.20
9448;DHT22;4762;48.128;11.376;2023-09-30T10:27:35;22.00;52.30
9448;DHT22;4762;48.128;11.376;2023-09-30T10:29:45;21.60;53.50
9448;DHT22;4762;48.128;11.376;2023-09-30T10:31:51;21.30;54.40
9448;DHT22;4762;48.128;11.376;2023-09-30T10:34:17;22.20;51.90
9448;DHT22;4762;48.128;11.376;2023-09-30T10:36:25;22.40;51.90
9448;DHT22;4762;48.128;11.376;2023-09-30T10:38:37;21.60;54.90
9448;DHT22;4762;48.128;11.376;2023-09-30T10:40:39;22.50;51.10
9448;DHT22;4762;48.128;11.376;2023-09-30T10:42:46;22.60;50.20
9448;DHT22;4762;48.128;11.376;2023-09-30T10:44:48;22.80;49.10
9448;DHT22;4762;48.128;11.376;2023-09-30T10:49:31;22.30;49.70
9448;DHT22;4762;48.128;11.376;2023-09-30T10:51:34;21.70;50.40
9448;DHT22;4762;48.128;11.376;2023-09-30T10:53:41;21.10;53.00
9448;DHT22;4762;48.128;11.376;2023-09-30T10:55:46;21.10;53.30
9448;DHT22;4762;48.128;11.376;2023-09-30T10:57:50;21.00;54.30
9448;DHT22;4762;48.128;11.376;2023-09-30T11:00:08;21.50;54.20
9448;DHT22;4762;48.128;11.376;2023-09-30T11:02:19;22.10;52.70
9448;DHT22;4762;48.128;11.376;2023-09-30T11:04:24;22.70;50.90
9448;DHT22;4762;48.128;11.376;2023-09-30T11:06:34;22.50;51.00
9448;DHT22;4762;48.128;11.376;2023-09-30T11:08:37;23.20;50.40
9448;DHT22;4762;48.128;11.376;2023-09-30T11:10:46;22.80;47.70
9448;DHT22;4762;48.128;11.376;2023-09-30T11:12:55;22.80;48.80
9448;DHT22;4762;48.128;11.376;2023-09-30T11:14:59;23.00;49.20
9448;DHT22;4762;48.128;11.376;2023-09-30T11:17:01;22.60;48.30
9448;DHT22;4762;48.128;11.376;2023-09-30T11:19:09;22.80;49.40
9448;DHT22;4762;48.128;11.376;2023-09-30T11:29:12;22.20;51.90
9448;DHT22;4762;48.128;11.376;2023-09-30T11:31:18;22.40;50.00
9448;DHT22;4762;48.128;11.376;2023-09-30T11:33:21;21.90;51.00
9448;DHT22;4762;48.128;11.376;2023-09-30T11:35:24;21.20;51.70
9448;DHT22;4762;48.128;11.376;2023-09-30T11:37:31;21.30;53.50
9448;DHT22;4762;48.128;11.376;2023-09-30T11:39:34;21.30;53.40
9448;DHT22;4762;48.128;11.376;2023-09-30T11:41:40;21.00;53.70
9448;DHT22;4762;48.128;11.376;2023-09-30T11:43:58;21.40;53.40
9448;DHT22;4762;48.128;11.376;2023-09-30T11:46:05;20.70;53.50
9448;DHT22;4762;48.128;11.376;2023-09-30T11:48:19;21.70;53.60
9448;DHT22;4762;48.128;11.376;2023-09-30T11:50:23;22.40;50.10
9448;DHT22;4762;48.128;11.376;2023-09-30T11:52:36;22.30;46.70
9448;DHT22;4762;48.128;11.376;2023-09-30T11:54:41;22.30;49.40
9448;DHT22;4762;48.128;11.376;2023-09-30T11:56:44;22.70;44.80
9448;DHT22;4762;48.128;11.376;2023-09-30T11:58:47;22.50;46.70
9448;DHT22;4762;48.128;11.376;2023-09-30T12:00:52;23.30;43.80
9448;DHT22;4762;48.128;11.376;2023-09-30T12:02:52;22.70;46.10
9448;DHT22;4762;48.128;11.376;2023-09-30T12:04:54;22.50;48.40
9448;DHT22;4762;48.128;11.376;2023-09-30T12:06:57;22.80;47.50
9448;DHT22;4762;48.128;11.376;2023-09-30T12:09:01;22.00;48.20
9448;DHT22;4762;48.128;11.376;2023-09-30T12:11:06;22.30;49.90
9448;DHT22;4762;48.128;11.376;2023-09-30T12:13:10;22.40;46.10
9448;DHT22;4762;48.128;11.376;2023-09-30T12:15:12;22.50;48.00
9448;DHT22;4762;48.128;11.376;2023-09-30T12:17:15;23.20;47.50
9448;DHT22;4762;48.128;11.376;2023-09-30T12:19:19;23.20;47.50
9448;DHT22;4762;48.128;11.376;2023-09-30T12:21:21;23.40;46.00
9448;DHT22;4762;48.128;11.376;2023-09-30T12:23:24;23.90;46.00
9448;DHT22;4762;48.128;11.376;2023-09-30T12:25:28;24.30;44.70
9448;DHT22;4762;48.128;11.376;2023-09-30T12:27:31;24.50;43.60
9448;DHT22;4762;48.128;11.376;2023-09-30T12:29:43;25.10;43.40
9448;DHT22;4762;48.128;11.376;2023-09-30T12:31:59;25.00;41.60
9448;DHT22;4762;48.128;11.376;2023-09-30T12:34:03;23.80;42.90
9448;DHT22;4762;48.128;11.376;2023-09-30T12:36:07;24.50;43.20
9448;DHT22;4762;48.128;11.376;2023-09-30T12:38:12;25.20;42.20
9448;DHT22;4762;48.128;11.376;2023-09-30T12:40:23;25.00;41.00
9448;DHT22;4762;48.128;11.376;2023-09-30T12:42:31;25.00;41.70
9448;DHT22;4762;48.128;11.376;2023-09-30T12:44:34;24.80;42.00
9448;DHT22;4762;48.128;11.376;2023-09-30T12:46:41;24.80;41.90
9448;DHT22;4762;48.128;11.376;2023-09-30T12:48:46;24.90;40.10
9448;DHT22;4762;48.128;11.376;2023-09-30T12:50:51;24.90;42.70
9448;DHT22;4762;48.128;11.376;2023-09-30T12:52:54;24.50;42.20
9448;DHT22;4762;48.128;11.376;2023-09-30T12:54:56;23.90;40.60
9448;DHT22;4762;48.128;11.376;2023-09-30T12:56:59;23.70;43.30
9448;DHT22;4762;48.128;11.376;2023-09-30T12:59:03;24.40;42.40
9448;DHT22;4762;48.128;11.376;2023-09-30T13:01:06;24.60;42.50
9448;DHT22;4762;48.128;11.376;2023-09-30T13:03:09;24.30;41.20
9448;DHT22;4762;48.128;11.376;2023-09-30T13:05:16;24.00;42.60
9448;DHT22;4762;48.128;11.376;2023-09-30T13:07:20;23.70;45.10
9448;DHT22;4762;48.128;11.376;2023-09-30T13:09:24;23.70;42.50
9448;DHT22;4762;48.128;11.376;2023-09-30T13:11:27;23.50;43.80
9448;DHT22;4762;48.128;11.376;2023-09-30T13:13:32;23.90;42.30
9448;DHT22;4762;48.128;11.376;2023-09-30T13:15:48;24.00;42.20
9448;DHT22;4762;48.128;11.376;2023-09-30T13:18:12;23.00;43.40
9448;DHT22;4762;48.128;11.376;2023-09-30T13:22:58;23.50;45.10
9448;DHT22;4762;48.128;11.376;2023-09-30T13:25:08;23.00;45.50
9448;DHT22;4762;48.128;11.376;2023-09-30T13:27:17;22.70;45.50
9448;DHT22;4762;48.128;11.376;2023-09-30T13:29:27;22.40;47.20
9448;DHT22;4762;48.128;11.376;2023-09-30T13:31:40;23.00;45.80
9448;DHT22;4762;48.128;11.376;2023-09-30T13:33:44;23.30;45.30
9448;DHT22;4762;48.128;11.376;2023-09-30T13:35:47;23.30;43.80
9448;DHT22;4762;48.128;11.376;2023-09-30T13:37:52;21.90;46.20
9448;DHT22;4762;48.128;11.376;2023-09-30T13:40:00;22.40;45.80
9448;DHT22;4762;48.128;11.376;2023-09-30T13:42:23;22.90;45.20
9448;DHT22;4762;48.128;11.376;2023-09-30T13:44:25;23.00;45.30
9448;DHT22;4762;48.128;11.376;2023-09-30T13:46:35;22.60;44.60
9448;DHT22;4762;48.128;11.376;2023-09-30T13:48:40;22.20;46.00
9448;DHT22;4762;48.128;11.376;2023-09-30T13:50:43;22.10;46.70
9448;DHT22;4762;48.128;11.376;2023-09-30T13:52:48;22.30;45.30
9448;DHT22;4762;48.128;11.376;2023-09-30T13:54:54;22.70;44.60
9448;DHT22;4762;48.128;11.376;2023-09-30T13:59:39;22.90;45.50
9448;DHT22;4762;48.128;11.376;2023-09-30T14:01:41;22.70;43.80
9448;DHT22;4762;48.128;11.376;2023-09-30T14:03:45;23.30;44.40
9448;DHT22;4762;48.128;11.376;2023-09-30T14:05:49;23.50;44.50